Time;durP1;ratioP1;P1;durP2;ratioP2;P2;SDS_P1;SDS_P2;PMS_P1;PMS_P2;Temp;Humidity;BMP_temperature;BMP_pressure;BME280_temperature;BME280_humidity;BME280_pressure;Samples;Min_cycle;Max_cycle;Signal;HPM_P1;HPM_P2
2022/05/10 00:00:00;;;;;;;6.95;4.75;;;11.00;99.90;;;;;;4946594;29;20052;-79
2022/05/10 00:02:32;;;;;;;5.60;3.30;;;11.00;99.90;;;;;;4944392;29;20024;-78
2022/05/10 00:04:58;;;;;;;6.20;4.13;;;11.00;99.90;;;;;;4945243;29;20027;-77
2022/05/10 00:07:27;;;;;;;6.40;4.60;;;10.90;99.90;;;;;;4944300;29;20035;-78
2022/05/10 00:09:55;;;;;;;5.72;4.10;;;10.90;99.90;;;;;;4944051;29;20512;-77
2022/05/10 00:12:21;;;;;;;5.20;3.50;;;10.80;99.90;;;;;;4943327;29;20032;-77
2022/05/10 00:14:47;;;;;;;3.92;3.50;;;10.70;99.90;;;;;;4944159;29;20042;-78
2022/05/10 00:17:30;;;;;;;5.38;3.60;;;10.70;99.90;;;;;;4944761;29;20036;-79
2022/05/10 00:19:56;;;;;;;5.78;4.75;;;10.60;99.90;;;;;;4945099;29;20044;-79
2022/05/10 00:22:22;;;;;;;5.60;4.10;;;10.60;99.90;;;;;;4943864;29;20087;-78
2022/05/10 00:24:48;;;;;;;5.07;3.78;;;10.50;99.90;;;;;;4942298;29;20059;-77
2022/05/10 00:27:14;;;;;;;6.20;4.18;;;10.50;99.90;;;;;;4945152;29;20087;-76
2022/05/10 00:29:39;;;;;;;5.57;4.10;;;10.50;99.90;;;;;;4944642;29;20025;-77
2022/05/10 00:32:05;;;;;;;5.20;4.15;;;10.50;99.90;;;;;;4941729;29;20086;-77
2022/05/10 00:34:31;;;;;;;5.47;3.92;;;10.50;99.90;;;;;;4943256;29;20087;-77
2022/05/10 00:36:57;;;;;;;5.22;3.92;;;10.50;99.90;;;;;;4943966;29;20390;-76
2022/05/10 00:39:22;;;;;;;5.50;4.35;;;10.50;99.90;;;;;;4941218;29;20075;-77
2022/05/10 00:42:16;;;;;;;6.20;4.40;;;10.50;99.90;;;;;;4942642;29;20036;-75
2022/05/10 00:44:54;;;;;;;5.18;4.05;;;;;;;;;;4940281;29;20111;-75
2022/05/10 00:47:31;;;;;;;4.22;3.53;;;10.40;99.90;;;;;;4939603;29;20035;-76
2022/05/10 00:49:59;;;;;;;6.20;4.10;;;10.30;99.90;;;;;;4939522;29;20063;-79
2022/05/10 00:52:47;;;;;;;7.50;4.65;;;10.30;99.90;;;;;;4938866;29;20718;-76
2022/05/10 00:55:18;;;;;;;5.68;4.60;;;10.20;99.90;;;;;;4936523;29;20423;-77
2022/05/10 00:57:50;;;;;;;35.47;5.00;;;10.30;99.90;;;;;;4935390;29;20031;-77
2022/05/10 01:00:24;;;;;;;8.02;5.15;;;10.30;99.90;;;;;;4933583;29;20412;-77
2022/05/10 01:02:59;;;;;;;9.60;5.47;;;10.30;99.90;;;;;;4934292;29;20043;-76
2022/05/10 01:05:42;;;;;;;10.02;4.65;;;10.30;99.90;;;;;;4932694;29;20682;-76
2022/05/10 01:08:58;;;;;;;9.77;5.00;;;10.20;99.90;;;;;;4932832;29;20031;-76
2022/05/10 01:11:38;;;;;;;8.73;3.97;;;10.20;99.90;;;;;;4932725;29;20099;-77
2022/05/10 01:14:27;;;;;;;7.40;4.15;;;10.10;99.90;;;;;;4936115;29;20027;-76
2022/05/10 01:16:53;;;;;;;6.13;4.75;;;10.10;99.90;;;;;;4933739;29;20627;-76
2022/05/10 01:19:19;;;;;;;7.13;4.72;;;10.00;99.90;;;;;;4936502;29;20027;-76
2022/05/10 01:22:07;;;;;;;6.35;4.30;;;10.00;99.90;;;;;;4938470;29;20507;-76
2022/05/10 01:25:07;;;;;;;6.03;5.05;;;10.00;99.90;;;;;;4936441;29;20024;-76
2022/05/10 01:27:58;;;;;;;6.10;4.22;;;9.90;99.90;;;;;;4899782;29;20139;-76
2022/05/10 01:30:31;;;;;;;6.07;3.60;;;9.80;99.90;;;;;;4933236;29;20027;-76
2022/05/10 01:36:01;;;;;;;6.90;4.07;;;9.80;99.90;;;;;;4933984;29;20046;-76
2022/05/10 01:38:49;;;;;;;6.05;4.68;;;9.90;99.90;;;;;;4932484;29;20587;-76
2022/05/10 01:41:36;;;;;;;6.18;4.72;;;9.80;99.90;;;;;;4935479;29;20106;-75
2022/05/10 01:44:36;;;;;;;6.38;4.30;;;9.80;99.90;;;;;;4935628;29;20035;-76
2022/05/10 01:47:34;;;;;;;8.15;5.00;;;9.70;99.90;;;;;;4934297;29;20028;-77
2022/05/10 01:50:25;;;;;;;7.15;4.40;;;9.70;99.90;;;;;;4928313;29;20033;-76
2022/05/10 01:52:57;;;;;;;6.32;4.97;;;9.70;99.90;;;;;;4933784;29;20139;-76
2022/05/10 01:55:37;;;;;;;7.30;4.68;;;9.70;99.90;;;;;;4932103;29;20050;-76
2022/05/10 01:58:30;;;;;;;7.15;4.95;;;9.70;99.90;;;;;;4933521;29;20028;-76
2022/05/10 02:00:59;;;;;;;6.30;4.70;;;9.60;99.90;;;;;;4929236;29;20036;-76
2022/05/10 02:03:47;;;;;;;7.65;5.80;;;9.60;99.90;;;;;;4933666;29;20477;-77
2022/05/10 02:06:38;;;;;;;8.63;4.75;;;9.60;99.90;;;;;;4931945;29;20054;-76
2022/05/10 02:09:13;;;;;;;8.70;5.10;;;9.60;99.90;;;;;;4932043;29;20032;-76
2022/05/10 02:11:41;;;;;;;7.07;4.65;;;9.60;99.90;;;;;;4932892;29;20028;-76
2022/05/10 02:14:33;;;;;;;8.68;5.90;;;9.60;99.90;;;;;;4933280;29;20094;-76
2022/05/10 02:17:01;;;;;;;8.82;5.38;;;9.60;99.90;;;;;;4933947;29;20030;-76
2022/05/10 02:19:35;;;;;;;6.88;4.80;;;9.70;99.90;;;;;;4933795;29;20103;-77
2022/05/10 02:22:16;;;;;;;7.43;5.63;;;9.60;99.90;;;;;;4932139;29;20055;-76
2022/05/10 02:24:51;;;;;;;6.90;5.05;;;9.50;99.90;;;;;;4933785;29;20097;-78
2022/05/10 02:27:34;;;;;;;7.03;4.90;;;9.40;99.90;;;;;;4936285;29;20116;-75
2022/05/10 02:30:05;;;;;;;6.50;4.90;;;9.40;99.90;;;;;;4936739;29;20031;-77
2022/05/10 02:33:09;;;;;;;7.28;4.85;;;9.30;99.90;;;;;;4935052;29;20031;-77
2022/05/10 02:35:38;;;;;;;8.82;4.65;;;9.30;99.90;;;;;;4935647;29;20032;-77
2022/05/10 02:38:06;;;;;;;4.95;4.22;;;9.20;99.90;;;;;;4935315;29;20460;-77
2022/05/10 02:40:32;;;;;;;5.10;4.00;;;9.30;99.90;;;;;;4936995;29;20043;-76
2022/05/10 02:42:59;;;;;;;5.25;4.07;;;9.20;99.90;;;;;;4935475;29;20024;-76
2022/05/10 02:45:24;;;;;;;6.55;4.75;;;9.20;99.90;;;;;;4935189;29;20035;-76
2022/05/10 02:47:50;;;;;;;6.07;5.05;;;9.10;99.90;;;;;;4935174;29;20123;-77
2022/05/10 02:50:19;;;;;;;6.22;3.80;;;9.00;99.90;;;;;;4935797;29;20039;-77
2022/05/10 02:52:45;;;;;;;6.30;3.97;;;8.90;99.90;;;;;;4935722;29;20090;-76
2022/05/10 02:55:36;;;;;;;6.13;4.15;;;8.90;99.90;;;;;;4936120;29;20122;-77
2022/05/10 02:58:16;;;;;;;7.70;4.40;;;8.90;99.90;;;;;;4930899;29;20031;-78
2022/05/10 03:00:42;;;;;;;11.32;5.07;;;8.90;99.90;;;;;;4938093;29;20028;-79
2022/05/10 03:03:14;;;;;;;8.20;4.75;;;8.90;99.90;;;;;;4939002;29;20031;-76
2022/05/10 03:05:39;;;;;;;7.57;5.53;;;9.00;99.90;;;;;;4948130;29;20039;-77
2022/05/10 03:08:05;;;;;;;7.68;5.10;;;9.10;99.90;;;;;;4946123;29;20615;-77
2022/05/10 03:10:32;;;;;;;11.15;6.68;;;9.00;99.90;;;;;;4947614;29;20055;-76
2022/05/10 03:12:59;;;;;;;7.30;4.82;;;9.00;99.90;;;;;;4946883;29;20079;-77
2022/05/10 03:15:26;;;;;;;6.47;4.82;;;9.00;99.90;;;;;;4945224;29;20554;-76
2022/05/10 03:17:51;;;;;;;6.78;4.50;;;8.90;99.90;;;;;;4945180;29;20028;-76
2022/05/10 03:20:17;;;;;;;6.53;4.00;;;8.80;99.90;;;;;;4944580;29;20034;-76
2022/05/10 03:22:43;;;;;;;5.78;4.07;;;8.80;99.90;;;;;;4944755;29;20028;-76
2022/05/10 03:25:09;;;;;;;6.15;4.40;;;8.70;99.90;;;;;;4941295;29;20028;-79
2022/05/10 03:27:35;;;;;;;7.90;5.63;;;8.80;99.90;;;;;;4938995;29;20472;-77
2022/05/10 03:30:04;;;;;;;7.40;4.68;;;8.80;99.90;;;;;;4942057;29;20031;-76
2022/05/10 03:32:31;;;;;;;6.50;4.85;;;8.80;99.90;;;;;;4942488;29;20047;-78
2022/05/10 03:34:58;;;;;;;9.80;6.00;;;8.70;99.90;;;;;;4941508;29;20114;-76
2022/05/10 03:37:31;;;;;;;12.80;6.38;;;8.80;99.90;;;;;;4938234;29;20071;-76
2022/05/10 03:39:57;;;;;;;7.13;5.00;;;8.80;99.90;;;;;;4940037;29;20027;-77
2022/05/10 03:42:24;;;;;;;7.88;4.60;;;8.80;99.90;;;;;;4936032;29;20052;-76
2022/05/10 03:44:52;;;;;;;8.43;4.97;;;8.70;99.90;;;;;;4934625;29;20024;-76
2022/05/10 03:47:19;;;;;;;7.97;5.50;;;8.70;99.90;;;;;;4937942;29;20074;-78
2022/05/10 03:49:45;;;;;;;7.60;5.03;;;8.70;99.90;;;;;;4938578;29;20086;-77
2022/05/10 03:52:12;;;;;;;7.82;5.82;;;8.60;99.90;;;;;;4937559;29;20028;-77
2022/05/10 03:54:38;;;;;;;12.18;6.53;;;8.80;99.90;;;;;;4934840;29;20500;-78
2022/05/10 03:57:05;;;;;;;10.95;5.78;;;8.90;99.90;;;;;;4935260;29;20028;-77
2022/05/10 03:59:32;;;;;;;10.65;4.97;;;;;;;;;;4936800;29;20432;-77
2022/05/10 04:01:57;;;;;;;10.05;5.70;;;9.00;99.90;;;;;;4939265;29;20469;-78
2022/05/10 04:04:24;;;;;;;7.35;5.63;;;9.00;99.90;;;;;;4939170;29;20039;-77
2022/05/10 04:06:50;;;;;;;6.32;4.88;;;8.80;99.90;;;;;;4936256;29;20146;-76
2022/05/10 04:09:16;;;;;;;7.47;4.15;;;8.80;99.90;;;;;;4938342;29;20345;-77
2022/05/10 04:11:44;;;;;;;5.53;4.57;;;8.80;99.90;;;;;;4936762;29;20642;-77
2022/05/10 04:14:11;;;;;;;6.35;3.95;;;8.70;99.90;;;;;;4935320;29;20024;-77
2022/05/10 04:16:37;;;;;;;5.80;4.13;;;8.70;99.90;;;;;;4935645;29;20122;-76
2022/05/10 04:19:02;;;;;;;7.85;5.25;;;8.60;99.90;;;;;;4937391;29;20059;-76
2022/05/10 04:21:28;;;;;;;8.07;4.70;;;8.70;99.90;;;;;;4937540;29;20071;-77
2022/05/10 04:23:54;;;;;;;7.72;4.63;;;8.70;99.90;;;;;;4935012;29;20023;-78
2022/05/10 04:26:21;;;;;;;5.78;4.57;;;8.80;99.90;;;;;;4935053;29;20039;-77
2022/05/10 04:28:47;;;;;;;7.50;5.03;;;8.90;99.90;;;;;;4934933;29;20031;-77
2022/05/10 04:31:12;;;;;;;5.80;5.10;;;8.90;99.90;;;;;;4935456;29;20035;-77
2022/05/10 04:33:40;;;;;;;7.43;5.50;;;9.00;99.90;;;;;;4936312;29;20119;-78
2022/05/10 04:36:06;;;;;;;6.40;5.40;;;9.00;99.90;;;;;;4934917;29;20030;-77
2022/05/10 04:38:32;;;;;;;6.75;4.60;;;9.10;99.90;;;;;;4935592;29;20191;-77
2022/05/10 04:43:43;;;;;;;6.95;5.18;;;9.30;99.90;;;;;;4935136;29;20053;-78
2022/05/10 04:46:09;;;;;;;6.63;5.03;;;9.40;99.90;;;;;;4933928;29;20035;-77
2022/05/10 04:48:34;;;;;;;7.32;5.38;;;9.60;99.90;;;;;;4933261;29;20510;-76
2022/05/10 04:51:01;;;;;;;7.63;5.35;;;9.60;99.90;;;;;;4934141;29;20032;-76
2022/05/10 04:53:27;;;;;;;7.53;4.65;;;9.70;99.90;;;;;;4935373;29;20096;-76
2022/05/10 04:55:53;;;;;;;7.25;4.65;;;9.70;99.90;;;;;;4934188;29;20115;-76
2022/05/10 04:58:18;;;;;;;10.93;5.88;;;9.80;99.90;;;;;;4934357;29;20024;-77
2022/05/10 05:00:44;;;;;;;5.93;4.47;;;10.00;99.90;;;;;;4938497;29;20051;-75
2022/05/10 05:03:10;;;;;;;8.57;5.40;;;10.20;99.90;;;;;;4937058;29;20039;-76
2022/05/10 05:05:36;;;;;;;6.85;5.57;;;10.20;99.90;;;;;;4937463;29;20063;-76
2022/05/10 05:08:01;;;;;;;8.77;6.35;;;10.50;99.90;;;;;;4934259;29;20027;-77
2022/05/10 05:10:28;;;;;;;9.10;5.22;;;10.70;99.90;;;;;;4934161;29;20389;-76
2022/05/10 05:12:54;;;;;;;7.70;5.30;;;10.90;99.90;;;;;;4934228;29;20027;-76
2022/05/10 05:15:20;;;;;;;7.82;5.35;;;10.80;99.90;;;;;;4933004;29;20036;-77
2022/05/10 05:17:45;;;;;;;10.55;6.80;;;11.00;99.90;;;;;;4934781;29;20551;-77
2022/05/10 05:20:11;;;;;;;6.60;4.55;;;11.10;99.90;;;;;;4939493;29;20086;-77
2022/05/10 05:22:38;;;;;;;8.85;4.90;;;11.20;99.90;;;;;;4933269;29;20035;-77
2022/05/10 05:25:05;;;;;;;5.97;4.43;;;11.40;99.90;;;;;;4933930;29;20024;-78
2022/05/10 05:27:31;;;;;;;6.78;4.88;;;11.60;99.90;;;;;;4938896;29;20098;-76
2022/05/10 05:29:57;;;;;;;6.95;4.88;;;11.80;99.90;;;;;;4937299;29;20316;-76
2022/05/10 05:32:27;;;;;;;5.25;4.40;;;11.90;99.90;;;;;;4936042;29;20052;-79
2022/05/10 05:34:53;;;;;;;6.25;4.65;;;12.00;99.90;;;;;;4938277;29;20472;-77
2022/05/10 05:37:34;;;;;;;5.30;3.75;;;12.10;99.90;;;;;;4938182;29;20055;-76
2022/05/10 05:40:11;;;;;;;7.13;4.82;;;12.30;99.90;;;;;;4936627;29;20051;-76
2022/05/10 05:42:37;;;;;;;6.93;4.10;;;12.80;99.90;;;;;;4942148;29;20039;-76
2022/05/10 05:45:06;;;;;;;4.85;3.90;;;12.70;99.90;;;;;;4946424;29;20587;-75
2022/05/10 05:47:32;;;;;;;;;;;13.00;99.90;;;;;;4960219;28;20058;-75
2022/05/10 05:49:57;;;;;;;6.45;4.22;;;13.30;99.90;;;;;;4951991;29;20345;-76
2022/05/10 05:52:24;;;;;;;5.32;4.43;;;13.50;99.90;;;;;;4955070;29;20011;-75
2022/05/10 05:54:50;;;;;;;5.25;4.28;;;13.70;99.90;;;;;;4950927;29;20055;-76
2022/05/10 05:57:16;;;;;;;6.72;4.88;;;13.70;99.90;;;;;;4943629;29;20070;-78
2022/05/10 05:59:42;;;;;;;8.85;5.03;;;13.90;99.90;;;;;;4946684;28;20039;-77
2022/05/10 06:02:15;;;;;;;6.68;4.97;;;14.10;99.90;;;;;;4945242;29;20405;-78
2022/05/10 06:04:41;;;;;;;6.63;4.25;;;14.30;99.90;;;;;;4958190;29;20031;-78
2022/05/10 06:07:09;;;;;;;8.38;5.82;;;14.60;99.90;;;;;;4954629;29;20579;-78
2022/05/10 06:09:36;;;;;;;5.55;4.38;;;14.80;99.90;;;;;;4953948;29;20420;-76
2022/05/10 06:12:03;;;;;;;3.65;3.35;;;15.00;99.90;;;;;;4953685;29;20058;-77
2022/05/10 06:14:29;;;;;;;4.30;3.78;;;15.30;99.90;;;;;;4955390;29;20027;-76
2022/05/10 06:16:56;;;;;;;5.82;4.07;;;15.60;99.90;;;;;;4960029;29;20034;-76
2022/05/10 06:19:22;;;;;;;5.20;4.20;;;15.70;99.90;;;;;;4964766;29;20026;-77
2022/05/10 06:21:48;;;;;;;5.85;3.75;;;16.40;99.90;;;;;;4965904;29;20038;-76
2022/05/10 06:24:13;;;;;;;4.53;3.58;;;15.90;99.90;;;;;;4959002;28;20031;-77
2022/05/10 06:26:39;;;;;;;4.55;3.45;;;16.40;99.90;;;;;;4973372;28;20042;-77
2022/05/10 06:29:05;;;;;;;4.78;3.67;;;16.90;99.90;;;;;;4972460;28;20046;-77
2022/05/10 06:31:30;;;;;;;6.15;3.95;;;17.20;99.90;;;;;;4971545;28;20049;-78
2022/05/10 06:33:56;;;;;;;3.55;3.00;;;17.30;99.90;;;;;;4968235;28;20482;-79
2022/05/10 06:36:22;;;;;;;4.70;3.38;;;17.40;99.90;;;;;;4969919;28;20037;-78
2022/05/10 06:38:47;;;;;;;3.30;2.75;;;17.30;99.90;;;;;;4968914;28;20577;-79
2022/05/10 06:41:13;;;;;;;2.90;2.58;;;17.20;99.90;;;;;;4968140;28;20082;-79
2022/05/10 06:43:39;;;;;;;3.65;3.22;;;17.40;99.90;;;;;;4956982;28;20059;-80
2022/05/10 06:46:10;;;;;;;3.85;3.35;;;17.20;99.90;;;;;;4951893;29;20653;-77
2022/05/10 06:48:35;;;;;;;4.78;3.03;;;17.30;99.90;;;;;;4948941;29;20027;-79
2022/05/10 06:51:08;;;;;;;3.33;2.75;;;17.70;99.90;;;;;;4951244;29;20138;-79
2022/05/10 06:53:35;;;;;;;2.85;2.65;;;17.60;99.90;;;;;;4950287;29;20038;-81
2022/05/10 06:56:01;;;;;;;3.25;2.95;;;18.00;99.90;;;;;;4953515;29;20039;-89
2022/05/10 06:58:27;;;;;;;3.00;2.38;;;18.40;99.90;;;;;;4952230;29;20165;-78
2022/05/10 07:00:53;;;;;;;4.47;3.22;;;19.10;99.90;;;;;;4949198;29;20043;-86
2022/05/10 07:03:30;;;;;;;3.92;2.35;;;19.90;99.90;;;;;;4950721;29;20031;-80
2022/05/10 07:05:56;;;;;;;2.80;2.53;;;20.70;99.90;;;;;;4951514;29;20027;-79
2022/05/10 07:08:22;;;;;;;4.28;2.83;;;21.50;99.90;;;;;;4951216;29;20074;-79
2022/05/10 07:10:47;;;;;;;3.13;2.60;;;22.30;99.90;;;;;;4951114;29;20035;-81
2022/05/10 07:13:19;;;;;;;2.63;2.42;;;22.10;99.90;;;;;;4951585;28;20701;-82
2022/05/10 07:15:45;;;;;;;2.95;2.53;;;21.40;99.90;;;;;;4955915;29;20062;-80
2022/05/10 07:18:11;;;;;;;5.82;2.72;;;21.20;99.90;;;;;;4953080;29;20042;-79
2022/05/10 07:20:37;;;;;;;2.65;2.45;;;21.00;99.90;;;;;;4966245;28;20506;-78
2022/05/10 07:23:03;;;;;;;2.97;2.53;;;21.10;99.90;;;;;;4974699;28;20466;-79
2022/05/10 07:25:30;;;;;;;4.07;3.67;;;20.90;99.90;;;;;;4970425;28;20388;-78
2022/05/10 07:27:57;;;;;;;2.83;2.60;;;21.00;99.90;;;;;;4973134;28;20030;-80
2022/05/10 07:30:25;;;;;;;2.97;2.67;;;20.70;99.90;;;;;;4973625;28;20027;-79
2022/05/10 07:32:51;;;;;;;2.88;2.60;;;20.50;99.90;;;;;;4975706;28;20031;-79
2022/05/10 07:36:23;;;;;;;2.90;2.67;;;21.00;99.90;;;;;;4973172;28;20142;-79
2022/05/10 07:38:06;;;;;;;4.03;3.28;;;20.80;99.90;;;;;;4974432;28;20057;-79
2022/05/10 07:40:32;;;;;;;3.08;2.53;;;20.30;99.90;;;;;;4977013;28;20046;-79
2022/05/10 07:42:58;;;;;;;2.63;2.42;;;20.30;99.90;;;;;;4979657;28;20097;-78
2022/05/10 07:45:24;;;;;;;4.80;2.92;;;20.40;99.90;;;;;;4979328;28;20054;-79
2022/05/10 07:47:49;;;;;;;2.63;2.33;;;21.00;99.90;;;;;;4973024;28;20109;-81
2022/05/10 07:50:16;;;;;;;2.67;2.40;;;21.20;99.90;;;;;;4969475;28;20019;-84
2022/05/10 07:52:42;;;;;;;1.95;1.85;;;21.70;99.90;;;;;;4970709;28;20037;-87
2022/05/10 07:55:09;;;;;;;5.63;3.13;;;21.80;99.90;;;;;;4975456;28;20422;-80
2022/05/10 07:57:35;;;;;;;2.00;1.90;;;22.20;99.90;;;;;;4970936;28;20444;-79
2022/05/10 08:00:01;;;;;;;3.05;2.67;;;22.70;99.90;;;;;;4970183;28;20101;-80
2022/05/10 08:02:26;;;;;;;3.30;2.17;;;23.00;99.90;;;;;;4969690;28;20042;-81
2022/05/10 08:04:52;;;;;;;2.40;2.08;;;22.30;99.90;;;;;;4971259;28;20379;-82
2022/05/10 08:07:17;;;;;;;2.80;2.60;;;22.40;99.90;;;;;;4971792;28;20083;-80
2022/05/10 08:09:43;;;;;;;2.60;2.40;;;21.60;99.90;;;;;;4969539;28;20486;-79
2022/05/10 08:12:09;;;;;;;3.13;2.40;;;21.90;99.90;;;;;;4969203;28;20058;-79
2022/05/10 08:14:34;;;;;;;3.00;2.70;;;22.30;99.90;;;;;;4969632;28;20026;-80
2022/05/10 08:17:00;;;;;;;3.60;2.42;;;22.30;99.90;;;;;;4967859;28;20085;-79
2022/05/10 08:19:26;;;;;;;3.47;2.83;;;22.20;99.90;;;;;;4963286;28;20507;-80
2022/05/10 08:21:55;;;;;;;3.83;3.17;;;23.10;99.90;;;;;;4949917;29;20483;-80
2022/05/10 08:24:22;;;;;;;3.00;2.70;;;23.20;99.90;;;;;;4948275;28;20031;-80
2022/05/10 08:26:47;;;;;;;2.92;2.47;;;22.90;99.90;;;;;;4948491;29;20038;-80
2022/05/10 08:29:13;;;;;;;3.10;2.47;;;23.00;99.90;;;;;;4949703;29;20027;-79
2022/05/10 08:31:40;;;;;;;3.22;2.85;;;23.20;99.90;;;;;;4949712;29;20038;-79
2022/05/10 08:34:06;;;;;;;3.38;2.83;;;23.70;99.90;;;;;;4949234;29;20046;-79
2022/05/10 08:36:32;;;;;;;2.70;2.45;;;23.30;99.90;;;;;;4950606;29;20159;-85
2022/05/10 08:38:58;;;;;;;2.60;2.38;;;23.60;99.90;;;;;;4950026;29;20122;-81
2022/05/10 08:41:40;;;;;;;2.40;2.22;;;23.80;99.90;;;;;;4948158;29;20725;-81
2022/05/10 08:44:17;;;;;;;2.88;2.50;;;23.80;99.90;;;;;;4949784;29;20069;-81
2022/05/10 08:46:46;;;;;;;3.50;3.20;;;23.80;99.90;;;;;;4949435;29;20039;-81
2022/05/10 08:49:35;;;;;;;2.53;2.33;;;23.70;99.90;;;;;;4950129;29;20023;-79
2022/05/10 08:52:01;;;;;;;;;;;23.80;99.90;;;;;;4949687;29;20139;-79
2022/05/10 08:54:29;;;;;;;3.13;2.83;;;23.70;99.90;;;;;;4949400;29;19914;-79
2022/05/10 08:56:59;;;;;;;5.63;3.05;;;24.10;99.90;;;;;;4948121;29;20129;-79
2022/05/10 08:59:42;;;;;;;3.25;2.67;;;24.10;99.90;;;;;;4948149;29;20034;-79
2022/05/10 09:02:24;;;;;;;3.08;2.22;;;24.10;98.70;;;;;;4947434;29;20031;-79
2022/05/10 09:04:58;;;;;;;4.47;3.00;;;23.60;97.80;;;;;;4947901;29;20027;-81
2022/05/10 09:08:01;;;;;;;2.65;2.38;;;23.20;99.90;;;;;;4953481;29;20042;-79
2022/05/10 09:10:52;;;;;;;3.33;2.85;;;22.30;99.90;;;;;;4954603;29;20082;-80
2022/05/10 09:13:20;;;;;;;2.45;2.25;;;22.40;99.90;;;;;;4953273;29;20028;-80
2022/05/10 09:15:54;;;;;;;3.22;2.10;;;23.20;99.90;;;;;;4948094;29;20031;-79
2022/05/10 09:18:29;;;;;;;2.83;2.63;;;23.30;99.90;;;;;;4950530;29;20407;-79
2022/05/10 09:21:19;;;;;;;3.38;3.03;;;23.90;99.90;;;;;;4963892;28;20041;-79
2022/05/10 09:24:19;;;;;;;1.83;1.73;;;23.80;97.40;;;;;;4966256;28;20037;-78
2022/05/10 09:26:48;;;;;;;2.55;2.17;;;24.30;98.20;;;;;;4966594;28;20045;-79
2022/05/10 09:29:21;;;;;;;2.73;2.47;;;24.50;99.10;;;;;;4968186;28;20019;-79
2022/05/10 09:34:46;;;;;;;2.13;1.92;;;24.10;91.80;;;;;;4966810;28;20081;-80
2022/05/10 09:37:17;;;;;;;1.88;1.77;;;23.60;73.30;;;;;;4966156;28;20617;-79
2022/05/10 09:39:55;;;;;;;1.85;1.75;;;23.60;70.00;;;;;;4966387;28;20033;-79
2022/05/10 09:42:40;;;;;;;2.20;1.88;;;23.90;67.30;;;;;;4966556;28;20497;-79
2022/05/10 09:45:26;;;;;;;1.67;1.58;;;23.90;66.80;;;;;;4964987;28;20042;-79
2022/05/10 09:48:02;;;;;;;1.92;1.83;;;24.00;67.60;;;;;;4966174;28;20035;-79
2022/05/10 09:50:33;;;;;;;1.92;1.83;;;24.00;70.00;;;;;;4968117;28;20645;-80
2022/05/10 09:53:22;;;;;;;3.88;2.50;;;24.00;68.40;;;;;;4968667;28;20053;-80
2022/05/10 09:56:05;;;;;;;3.97;2.50;;;24.10;93.00;;;;;;4955648;28;20105;-80
2022/05/10 09:58:53;;;;;;;3.70;2.28;;;24.40;81.20;;;;;;4968011;28;20106;-79
2022/05/10 10:01:46;;;;;;;3.22;1.80;;;24.20;74.90;;;;;;4969066;28;20029;-79
2022/05/10 10:04:20;;;;;;;2.22;1.92;;;23.80;74.00;;;;;;4967412;28;20473;-78
2022/05/10 10:07:03;;;;;;;1.75;1.65;;;23.70;74.10;;;;;;4967778;28;20035;-79
2022/05/10 10:09:32;;;;;;;2.20;2.08;;;24.10;75.90;;;;;;4966498;28;20034;-78
2022/05/10 10:11:58;;;;;;;1.80;1.70;;;24.50;66.70;;;;;;4967723;28;20038;-77
2022/05/10 10:14:38;;;;;;;2.35;2.15;;;24.80;65.80;;;;;;4967519;28;20031;-80
2022/05/10 10:17:05;;;;;;;2.80;2.30;;;24.30;66.40;;;;;;4968085;28;20761;-81
2022/05/10 10:19:45;;;;;;;1.70;1.55;;;24.80;65.10;;;;;;4962351;28;20031;-78
2022/05/10 10:22:28;;;;;;;1.67;1.58;;;25.00;62.50;;;;;;4948395;29;20035;-79
2022/05/10 10:24:54;;;;;;;1.73;1.63;;;25.20;60.90;;;;;;4948479;29;20027;-79
2022/05/10 10:27:53;;;;;;;1.67;1.40;;;25.40;60.20;;;;;;4947709;29;20095;-79
2022/05/10 10:30:27;;;;;;;1.50;1.40;;;26.20;59.50;;;;;;4928661;29;20488;-78
2022/05/10 10:33:12;;;;;;;1.48;1.30;;;26.00;60.00;;;;;;4948049;29;20034;-79
2022/05/10 10:35:45;;;;;;;2.15;1.95;;;25.50;60.60;;;;;;4948022;29;20115;-78
2022/05/10 10:38:25;;;;;;;3.80;1.83;;;25.10;63.00;;;;;;4947926;29;20043;-79
2022/05/10 10:41:04;;;;;;;1.75;1.65;;;24.50;61.90;;;;;;4947211;29;20040;-81
2022/05/10 10:43:51;;;;;;;1.50;1.40;;;24.00;62.70;;;;;;4948852;29;20030;-80
2022/05/10 10:46:25;;;;;;;1.83;1.73;;;23.80;64.70;;;;;;4947239;28;20043;-77
2022/05/10 10:48:56;;;;;;;1.60;1.50;;;24.30;70.10;;;;;;4950419;29;20027;-78
2022/05/10 10:51:28;;;;;;;2.45;1.52;;;24.50;69.40;;;;;;4951926;29;20027;-78
2022/05/10 10:53:54;;;;;;;3.17;1.70;;;24.60;64.50;;;;;;4950486;29;20027;-79
2022/05/10 10:56:42;;;;;;;2.75;2.10;;;25.10;64.40;;;;;;4951667;29;20038;-79
2022/05/10 10:59:38;;;;;;;2.80;1.63;;;25.40;64.10;;;;;;4950622;29;20480;-82
2022/05/10 11:02:24;;;;;;;2.00;1.63;;;25.70;69.10;;;;;;4951751;28;20630;-80
2022/05/10 11:05:29;;;;;;;3.38;1.38;;;25.80;63.60;;;;;;4951924;29;20027;-83
2022/05/10 11:08:15;;;;;;;2.33;1.67;;;25.60;66.90;;;;;;4936943;29;20050;-84
2022/05/10 11:10:46;;;;;;;1.25;1.25;;;25.70;63.80;;;;;;4953642;29;20111;-83
2022/05/10 11:13:27;;;;;;;1.73;1.63;;;25.70;61.20;;;;;;4952152;29;20034;-83
2022/05/10 11:16:31;;;;;;;2.90;1.92;;;26.40;59.80;;;;;;4953092;29;20065;-83
2022/05/10 11:19:35;;;;;;;1.85;1.60;;;27.20;60.70;;;;;;4953493;28;20057;-82
2022/05/10 11:22:12;;;;;;;1.30;1.20;;;27.80;58.10;;;;;;4970720;28;20467;-83
2022/05/10 11:25:06;;;;;;;1.77;1.40;;;28.00;55.20;;;;;;4972064;28;20521;-83
2022/05/10 11:27:47;;;;;;;2.92;1.85;;;26.70;55.60;;;;;;4972739;28;20812;-84
2022/05/10 11:30:30;;;;;;;1.85;1.67;;;26.40;58.20;;;;;;4969833;28;20033;-84
2022/05/10 11:33:29;;;;;;;2.00;1.20;;;26.80;57.30;;;;;;4969437;28;20030;-83
2022/05/10 11:36:07;;;;;;;2.22;1.30;;;26.30;57.80;;;;;;4944052;28;20042;-85
2022/05/10 11:39:03;;;;;;;1.92;1.80;;;27.10;57.40;;;;;;4970751;28;20078;-83
2022/05/10 11:41:53;;;;;;;2.92;1.23;;;27.40;54.80;;;;;;4971407;28;20076;-83
2022/05/10 11:44:47;;;;;;;2.50;1.63;;;27.40;54.00;;;;;;4971948;28;20027;-82
2022/05/10 11:47:24;;;;;;;1.60;1.50;;;28.50;54.10;;;;;;4970993;28;20034;-84
2022/05/10 11:50:06;;;;;;;0.90;0.90;;;28.30;55.30;;;;;;4970867;28;20046;-86
2022/05/10 11:52:50;;;;;;;1.17;1.17;;;28.00;53.10;;;;;;4971767;28;20435;-84
2022/05/10 11:55:51;;;;;;;2.17;1.70;;;28.00;53.20;;;;;;4968268;28;20383;-81
2022/05/10 11:58:17;;;;;;;1.50;1.33;;;28.90;54.60;;;;;;4931751;28;20042;-83
2022/05/10 12:01:05;;;;;;;6.45;1.20;;;29.20;51.20;;;;;;4951489;29;20023;-83
2022/05/10 12:03:36;;;;;;;2.60;1.30;;;29.10;50.50;;;;;;4949987;29;20028;-79
2022/05/10 12:06:24;;;;;;;1.35;1.25;;;29.90;50.20;;;;;;4950168;29;20038;-79
2022/05/10 12:08:57;;;;;;;1.42;1.33;;;29.20;50.10;;;;;;4949891;29;20027;-82
2022/05/10 12:11:30;;;;;;;1.70;1.35;;;29.60;50.50;;;;;;4952390;29;20110;-82
2022/05/10 12:22:20;;;;;;;2.00;1.30;;;28.90;52.80;;;;;;4970819;28;20630;-81
2022/05/10 12:24:50;;;;;;;1.15;1.13;;;28.50;51.90;;;;;;4968790;28;20038;-81
2022/05/10 12:27:16;;;;;;;1.10;1.10;;;29.50;50.40;;;;;;4968759;28;20050;-84
2022/05/10 12:29:41;;;;;;;3.08;1.02;;;29.60;51.10;;;;;;4968481;28;20027;-84
2022/05/10 12:32:41;;;;;;;1.00;1.00;;;28.20;49.80;;;;;;4968862;28;20130;-87
2022/05/10 12:35:08;;;;;;;1.00;1.00;;;29.00;51.50;;;;;;4970732;28;20031;-83
2022/05/10 12:37:48;;;;;;;1.00;1.00;;;29.00;53.80;;;;;;4972859;28;20051;-85
2022/05/10 12:40:13;;;;;;;1.20;1.10;;;29.50;51.40;;;;;;4972727;28;20263;-85
2022/05/10 12:43:21;;;;;;;1.15;1.10;;;29.30;51.30;;;;;;4972147;28;20031;-87
2022/05/10 12:45:47;;;;;;;1.45;1.38;;;29.10;50.30;;;;;;4971796;28;20503;-85
2022/05/10 12:48:40;;;;;;;2.53;2.00;;;28.90;51.40;;;;;;4972429;28;20046;-85
2022/05/10 12:51:18;;;;;;;1.05;1.00;;;28.90;50.50;;;;;;4970879;28;20518;-85
2022/05/10 12:53:55;;;;;;;1.30;1.20;;;28.40;51.30;;;;;;4972785;28;20077;-83
2022/05/10 12:56:29;;;;;;;2.15;1.10;;;28.20;52.20;;;;;;4972708;28;20069;-89
2022/05/10 12:59:08;;;;;;;1.50;1.40;;;27.40;53.50;;;;;;4971713;28;20019;-87
2022/05/10 13:01:37;;;;;;;1.13;1.13;;;28.60;54.00;;;;;;4971948;28;20027;-86
2022/05/10 13:04:25;;;;;;;1.20;1.20;;;28.60;54.60;;;;;;4971090;28;20043;-87
2022/05/10 13:07:04;;;;;;;1.02;0.90;;;29.10;51.40;;;;;;4971083;28;20086;-86
2022/05/10 13:09:41;;;;;;;1.33;1.15;;;29.30;49.80;;;;;;4972577;28;20118;-85
2022/05/10 13:12:18;;;;;;;1.40;1.10;;;28.60;50.10;;;;;;4970743;28;20042;-85
2022/05/10 13:14:57;;;;;;;0.82;0.82;;;28.30;50.40;;;;;;4972286;28;20038;-85
2022/05/10 13:17:32;;;;;;;1.13;1.13;;;28.30;51.20;;;;;;4972049;28;20022;-86
2022/05/10 13:19:59;;;;;;;1.17;1.08;;;27.40;51.70;;;;;;4970370;28;20530;-87
2022/05/10 13:22:26;;;;;;;0.80;0.80;;;27.60;52.50;;;;;;4969124;28;20030;-86
2022/05/10 13:24:55;;;;;;;1.30;0.88;;;27.90;53.90;;;;;;4968045;28;20057;-84
2022/05/10 13:27:31;;;;;;;1.60;1.50;;;28.80;51.00;;;;;;4968558;28;20132;-85
2022/05/10 13:30:10;;;;;;;0.85;0.85;;;29.70;49.70;;;;;;4969875;28;20027;-85
2022/05/10 13:32:40;;;;;;;1.00;0.90;;;29.50;48.60;;;;;;4969476;28;20031;-85
2022/05/10 13:35:21;;;;;;;1.40;1.30;;;29.00;49.70;;;;;;4969641;28;20019;-81
2022/05/10 13:37:56;;;;;;;1.55;0.95;;;28.40;49.90;;;;;;4968589;28;20058;-90